Time;durP1;ratioP1;P1;durP2;ratioP2;P2;SDS_P1;SDS_P2;PMS_P1;PMS_P2;Temp;Humidity;BMP_temperature;BMP_pressure;BME280_temperature;BME280_humidity;BME280_pressure;Samples;Min_cycle;Max_cycle;Signal;HPM_P1;HPM_P2
2021/12/01 00:00:54;;;;;;;1.40;1.30;;;5.20;93.30;;;;;;5048960;28;21072;-75
2021/12/01 00:03:20;;;;;;;1.80;1.40;;;5.10;93.60;;;;;;5050308;28;20944;-74
2021/12/01 00:05:46;;;;;;;2.17;1.40;;;5.10;94.10;;;;;;5041892;28;20427;-77
2021/12/01 00:08:12;;;;;;;1.60;1.20;;;5.00;94.30;;;;;;5050597;28;21014;-75
2021/12/01 00:10:39;;;;;;;2.87;1.50;;;5.10;94.70;;;;;;5046613;28;20517;-75
2021/12/01 00:13:08;;;;;;;1.83;1.53;;;5.00;94.80;;;;;;5052440;28;20223;-75
2021/12/01 00:15:34;;;;;;;4.67;2.10;;;5.00;94.90;;;;;;5046787;28;20426;-75
2021/12/01 00:18:00;;;;;;;2.00;1.60;;;5.00;95.00;;;;;;5046180;28;20450;-75
2021/12/01 00:20:26;;;;;;;2.03;1.50;;;5.00;95.10;;;;;;5050488;28;20470;-77
2021/12/01 00:22:52;;;;;;;2.37;1.70;;;4.90;95.20;;;;;;5051501;28;20520;-74
2021/12/01 00:25:22;;;;;;;2.17;1.60;;;4.90;95.30;;;;;;5045816;28;20424;-74
2021/12/01 00:27:50;;;;;;;2.13;1.80;;;4.90;95.30;;;;;;5044842;28;20443;-74
2021/12/01 00:30:16;;;;;;;2.10;1.60;;;4.80;95.60;;;;;;5037326;28;20434;-75
2021/12/01 00:32:42;;;;;;;2.53;1.33;;;4.80;95.90;;;;;;5037719;28;20422;-74
2021/12/01 00:35:09;;;;;;;2.77;1.73;;;4.90;95.90;;;;;;5044290;28;20419;-73
2021/12/01 00:37:35;;;;;;;3.37;1.27;;;4.80;95.90;;;;;;5050104;28;20209;-75
2021/12/01 00:40:02;;;;;;;2.37;1.60;;;4.80;95.80;;;;;;5044333;28;20524;-75
2021/12/01 00:42:28;;;;;;;1.93;1.70;;;4.70;95.80;;;;;;5050406;28;20426;-75
2021/12/01 00:44:56;;;;;;;1.97;1.30;;;4.70;95.80;;;;;;5051969;28;20415;-74
2021/12/01 00:47:30;;;;;;;1.53;1.20;;;4.70;95.80;;;;;;5046675;28;20254;-73
2021/12/01 00:49:56;;;;;;;1.07;1.00;;;4.70;95.80;;;;;;5044764;28;20894;-75
2021/12/01 00:52:21;;;;;;;1.60;1.17;;;4.70;95.50;;;;;;5046384;28;20431;-74
2021/12/01 00:54:47;;;;;;;2.50;1.00;;;4.70;95.50;;;;;;5054903;28;20446;-74
2021/12/01 00:57:13;;;;;;;1.77;1.30;;;4.70;95.50;;;;;;5053097;28;20274;-73
2021/12/01 00:59:39;;;;;;;1.37;1.03;;;4.80;95.70;;;;;;5047937;28;20430;-74
2021/12/01 01:02:05;;;;;;;1.77;1.23;;;4.70;95.70;;;;;;5058844;28;20535;-75
2021/12/01 01:04:31;;;;;;;1.80;1.20;;;4.70;95.80;;;;;;5059878;28;20702;-74
2021/12/01 01:06:56;;;;;;;2.63;1.20;;;4.70;95.90;;;;;;5046521;28;20632;-74
2021/12/01 01:09:26;;;;;;;1.40;1.20;;;4.70;95.70;;;;;;5052690;28;20173;-73
2021/12/01 01:17:26;;;;;;;2.07;1.30;;;4.80;95.10;;;;;;5046335;28;20989;-73
2021/12/01 01:19:51;;;;;;;1.43;1.20;;;4.80;95.00;;;;;;5045810;28;20427;-73
2021/12/01 01:22:17;;;;;;;1.27;1.10;;;4.80;94.90;;;;;;5045696;28;20814;-73
2021/12/01 01:24:43;;;;;;;2.10;1.40;;;4.80;94.70;;;;;;5048387;28;20180;-73
2021/12/01 01:27:08;;;;;;;2.20;1.17;;;4.90;94.70;;;;;;5043735;28;20224;-73
2021/12/01 01:29:36;;;;;;;1.50;1.40;;;4.90;94.70;;;;;;5051298;28;20227;-73
2021/12/01 01:32:03;;;;;;;1.30;1.20;;;4.90;94.80;;;;;;5046337;28;20711;-73
2021/12/01 01:34:29;;;;;;;2.17;1.40;;;4.90;94.70;;;;;;5052507;28;20414;-76
2021/12/01 01:36:54;;;;;;;1.53;1.20;;;5.00;94.60;;;;;;5038755;28;20516;-73
2021/12/01 01:39:21;;;;;;;2.13;1.50;;;5.00;94.60;;;;;;5045132;28;20184;-74
2021/12/01 01:41:46;;;;;;;2.60;1.77;;;5.00;94.40;;;;;;5034979;28;20213;-74
2021/12/01 01:44:12;;;;;;;1.70;1.50;;;5.00;94.30;;;;;;5052427;28;20411;-73
2021/12/01 01:46:39;;;;;;;2.77;2.00;;;5.00;94.20;;;;;;5051596;28;20254;-73
2021/12/01 01:49:18;;;;;;;2.20;1.70;;;5.10;94.10;;;;;;5046950;28;20419;-72
2021/12/01 01:51:45;;;;;;;2.87;1.90;;;5.10;94.20;;;;;;5046824;28;20431;-73
2021/12/01 01:54:11;;;;;;;2.20;1.70;;;5.10;94.20;;;;;;5045625;28;20420;-74
2021/12/01 01:56:38;;;;;;;3.03;1.87;;;5.10;94.10;;;;;;5039685;28;20446;-73
2021/12/01 01:59:04;;;;;;;2.93;1.97;;;5.10;94.00;;;;;;5041725;28;20916;-73
2021/12/01 02:01:46;;;;;;;2.73;2.13;;;5.10;94.10;;;;;;5037798;28;20496;-74
2021/12/01 02:04:15;;;;;;;3.03;2.00;;;5.20;94.10;;;;;;5044632;28;20415;-73
2021/12/01 02:06:41;;;;;;;2.20;1.53;;;5.20;94.10;;;;;;5039476;28;20906;-73
2021/12/01 02:09:08;;;;;;;6.83;2.37;;;5.20;94.10;;;;;;5046295;28;20787;-73
2021/12/01 02:11:34;;;;;;;2.53;1.80;;;5.20;94.10;;;;;;5051259;28;20502;-73
2021/12/01 02:14:00;;;;;;;2.23;1.73;;;5.20;94.10;;;;;;5042067;28;20448;-73
2021/12/01 02:16:26;;;;;;;1.93;1.50;;;5.20;94.00;;;;;;5049347;28;20937;-72
2021/12/01 02:18:52;;;;;;;2.67;2.27;;;5.20;94.00;;;;;;5041707;28;20432;-74
2021/12/01 02:21:29;;;;;;;1.63;1.50;;;5.20;94.10;;;;;;5045162;28;20455;-74
2021/12/01 02:24:00;;;;;;;2.30;1.80;;;5.20;94.10;;;;;;5040928;28;20177;-74
2021/12/01 02:26:28;;;;;;;3.13;1.93;;;5.30;93.80;;;;;;5042457;28;20874;-74
2021/12/01 02:28:56;;;;;;;2.83;1.70;;;5.20;93.60;;;;;;5044459;28;20407;-73
2021/12/01 02:31:30;;;;;;;2.60;1.40;;;5.20;93.80;;;;;;5043753;28;20427;-72
2021/12/01 02:33:57;;;;;;;2.43;1.77;;;5.30;93.70;;;;;;5038645;28;20454;-73
2021/12/01 02:36:23;;;;;;;2.30;1.80;;;5.30;93.50;;;;;;5038372;28;20443;-74
2021/12/01 02:38:50;;;;;;;1.57;1.57;;;5.30;93.50;;;;;;5051948;28;20515;-75
2021/12/01 02:41:24;;;;;;;1.73;1.47;;;5.30;93.50;;;;;;5047094;28;20485;-75
2021/12/01 02:43:50;;;;;;;2.90;1.73;;;5.30;93.40;;;;;;5043738;28;20412;-76
2021/12/01 02:46:16;;;;;;;1.33;1.33;;;5.30;93.20;;;;;;5042127;28;20474;-72
2021/12/01 02:48:42;;;;;;;2.70;1.50;;;5.40;93.20;;;;;;5045475;28;20292;-73
2021/12/01 02:51:09;;;;;;;2.80;1.73;;;5.40;93.00;;;;;;5050781;28;20263;-72
2021/12/01 02:53:36;;;;;;;1.93;1.53;;;5.40;93.00;;;;;;5051939;28;20435;-73
2021/12/01 02:56:04;;;;;;;1.80;1.50;;;5.40;93.10;;;;;;5049094;28;20420;-72
2021/12/01 02:58:32;;;;;;;2.10;1.50;;;5.40;93.00;;;;;;5052580;28;20483;-73
2021/12/01 03:01:03;;;;;;;2.60;1.67;;;5.40;92.80;;;;;;5041594;28;20828;-73
2021/12/01 03:03:29;;;;;;;3.37;1.70;;;5.40;92.80;;;;;;5047461;28;20514;-73
2021/12/01 03:05:57;;;;;;;1.60;1.13;;;5.40;92.70;;;;;;5032461;28;20404;-73
2021/12/01 03:08:22;;;;;;;2.20;1.60;;;5.50;92.60;;;;;;5050453;28;20476;-73
2021/12/01 03:10:52;;;;;;;1.70;1.40;;;5.50;92.60;;;;;;5040286;28;20427;-73
2021/12/01 03:13:19;;;;;;;2.73;1.43;;;5.50;92.60;;;;;;5043668;28;20189;-72
2021/12/01 03:15:45;;;;;;;1.83;1.67;;;5.50;92.50;;;;;;5043615;28;20782;-74
2021/12/01 03:18:12;;;;;;;2.23;1.50;;;5.60;92.20;;;;;;5043361;28;20445;-73
2021/12/01 03:20:39;;;;;;;2.00;1.33;;;5.60;92.10;;;;;;5052563;28;20965;-74
2021/12/01 03:23:05;;;;;;;2.10;1.77;;;5.60;92.20;;;;;;5038017;28;20470;-75
2021/12/01 03:25:32;;;;;;;2.07;1.47;;;5.60;92.00;;;;;;5042791;28;20422;-75
2021/12/01 03:27:58;;;;;;;1.73;1.50;;;5.60;92.10;;;;;;5044121;28;20812;-74
2021/12/01 03:30:23;;;;;;;2.93;1.73;;;5.50;92.30;;;;;;5037411;28;20503;-75
2021/12/01 03:32:51;;;;;;;1.73;1.30;;;5.60;92.30;;;;;;5033792;28;20416;-74
2021/12/01 03:35:17;;;;;;;2.10;1.43;;;5.60;92.30;;;;;;5041336;28;20193;-74
2021/12/01 03:37:46;;;;;;;3.57;1.60;;;5.60;92.20;;;;;;5037570;28;20442;-74
2021/12/01 03:40:14;;;;;;;2.50;1.57;;;5.60;92.20;;;;;;5039211;28;20802;-75
2021/12/01 03:42:43;;;;;;;2.37;1.70;;;5.60;92.30;;;;;;5049913;28;20926;-74
2021/12/01 03:45:10;;;;;;;2.33;1.60;;;5.60;92.30;;;;;;5034933;28;21180;-74
2021/12/01 03:47:36;;;;;;;1.93;1.40;;;5.70;92.20;;;;;;5043486;28;20527;-75
2021/12/01 03:50:03;;;;;;;2.20;1.50;;;5.70;92.10;;;;;;5042234;28;20506;-74
2021/12/01 03:52:28;;;;;;;1.47;1.47;;;5.70;92.30;;;;;;5052325;28;20188;-74
2021/12/01 03:54:54;;;;;;;1.63;1.33;;;5.60;92.20;;;;;;5043631;28;20420;-74
2021/12/01 03:57:20;;;;;;;2.10;1.50;;;5.70;92.30;;;;;;5040656;28;20319;-74
2021/12/01 03:59:46;;;;;;;2.23;1.30;;;5.70;92.30;;;;;;5054498;28;20651;-74
2021/12/01 04:02:12;;;;;;;2.37;1.33;;;5.70;92.40;;;;;;5041812;28;20532;-75
2021/12/01 04:04:38;;;;;;;1.80;1.70;;;5.80;92.40;;;;;;5047741;28;20187;-74
2021/12/01 04:07:04;;;;;;;1.60;1.50;;;5.80;92.20;;;;;;5046897;28;20451;-75
2021/12/01 04:09:31;;;;;;;4.43;1.70;;;5.80;92.10;;;;;;5057896;28;20580;-74
2021/12/01 04:11:57;;;;;;;3.03;1.80;;;5.80;92.20;;;;;;5043240;28;20423;-76
2021/12/01 04:14:23;;;;;;;3.03;1.50;;;5.80;92.20;;;;;;5050760;28;20773;-74
2021/12/01 04:16:49;;;;;;;4.23;1.60;;;5.80;92.10;;;;;;5041504;28;20196;-74
2021/12/01 04:19:15;;;;;;;1.93;1.60;;;5.80;92.10;;;;;;5040474;28;20825;-75
2021/12/01 04:21:41;;;;;;;2.20;1.90;;;5.90;92.10;;;;;;5051924;28;20257;-74
2021/12/01 04:24:07;;;;;;;2.90;1.70;;;5.90;92.10;;;;;;5041471;28;20183;-74
2021/12/01 04:26:33;;;;;;;2.53;1.47;;;5.90;92.20;;;;;;5041398;28;20878;-74
2021/12/01 04:29:02;;;;;;;2.00;1.50;;;6.00;91.80;;;;;;5035275;28;20500;-75
2021/12/01 04:31:31;;;;;;;2.93;1.70;;;5.90;91.90;;;;;;5043526;28;20416;-74
2021/12/01 04:33:58;;;;;;;3.87;2.33;;;5.90;92.10;;;;;;5048308;28;20854;-74
2021/12/01 04:36:31;;;;;;;2.17;1.90;;;5.90;92.00;;;;;;5042826;28;20451;-75
2021/12/01 04:38:57;;;;;;;2.33;1.50;;;6.00;91.90;;;;;;5047121;28;20435;-74
2021/12/01 04:41:24;;;;;;;1.83;1.37;;;6.00;91.80;;;;;;5047095;28;20836;-74
2021/12/01 04:43:52;;;;;;;9.50;1.77;;;6.00;91.50;;;;;;5045755;28;20180;-75
2021/12/01 04:46:20;;;;;;;1.90;1.40;;;6.00;91.60;;;;;;5044911;28;20767;-74
2021/12/01 04:48:46;;;;;;;6.00;1.80;;;6.10;91.40;;;;;;5048683;28;20433;-74
2021/12/01 04:51:13;;;;;;;1.53;1.30;;;6.10;91.40;;;;;;5045776;28;20419;-74
2021/12/01 04:53:38;;;;;;;2.30;1.80;;;6.10;91.30;;;;;;5049833;28;20481;-75
2021/12/01 04:56:06;;;;;;;4.43;1.30;;;6.10;91.40;;;;;;5042979;28;20419;-74
2021/12/01 04:58:33;;;;;;;2.13;1.30;;;6.10;91.50;;;;;;5038731;28;21029;-74
2021/12/01 05:00:59;;;;;;;1.10;0.93;;;6.20;91.60;;;;;;5051131;28;20513;-76
2021/12/01 05:03:25;;;;;;;1.30;1.20;;;6.20;91.30;;;;;;5041470;28;20431;-74
2021/12/01 05:05:51;;;;;;;3.00;1.23;;;6.20;91.20;;;;;;5038568;28;20416;-75
2021/12/01 05:08:18;;;;;;;1.30;1.20;;;6.20;91.20;;;;;;5051147;28;20803;-75
2021/12/01 05:10:44;;;;;;;1.73;1.37;;;6.20;91.20;;;;;;5046246;28;20518;-76
2021/12/01 05:13:10;;;;;;;1.83;1.20;;;6.20;91.20;;;;;;5036603;28;20919;-74
2021/12/01 05:15:35;;;;;;;3.07;1.40;;;6.30;91.00;;;;;;5043706;28;20422;-75
2021/12/01 05:18:02;;;;;;;2.07;0.97;;;6.30;91.10;;;;;;5031398;28;20489;-75
2021/12/01 05:20:27;;;;;;;1.70;1.03;;;6.30;90.80;;;;;;5036098;28;20189;-75
2021/12/01 05:22:53;;;;;;;1.60;1.17;;;6.40;90.70;;;;;;5047146;28;20876;-74
2021/12/01 05:25:19;;;;;;;2.07;1.33;;;6.40;90.60;;;;;;5043465;28;20420;-74
2021/12/01 05:27:45;;;;;;;4.20;1.07;;;6.40;90.40;;;;;;5036686;28;20257;-72
2021/12/01 05:30:11;;;;;;;0.90;0.80;;;6.50;90.40;;;;;;5042551;28;20267;-73
2021/12/01 05:32:37;;;;;;;1.27;0.90;;;6.50;90.30;;;;;;5039579;28;20196;-74
2021/12/01 05:35:03;;;;;;;2.83;1.03;;;6.50;90.20;;;;;;5047018;28;20420;-73
2021/12/01 05:37:29;;;;;;;2.30;1.00;;;6.50;90.10;;;;;;5039390;28;20258;-74
2021/12/01 05:39:55;;;;;;;1.87;1.13;;;6.60;89.60;;;;;;5044385;28;20420;-73
2021/12/01 05:42:21;;;;;;;1.83;1.00;;;6.60;89.60;;;;;;5051742;28;20215;-74
2021/12/01 05:44:47;;;;;;;1.70;1.20;;;6.60;89.70;;;;;;5033939;28;20575;-74
2021/12/01 05:47:13;;;;;;;3.03;1.30;;;6.70;89.60;;;;;;5050377;28;20439;-76
2021/12/01 05:49:42;;;;;;;1.60;1.03;;;6.70;89.30;;;;;;5046503;28;20921;-75
2021/12/01 05:52:09;;;;;;;0.97;0.90;;;6.70;88.70;;;;;;5043407;28;20465;-74
2021/12/01 05:54:35;;;;;;;1.73;1.10;;;6.70;88.90;;;;;;5042284;28;20485;-76
2021/12/01 05:57:01;;;;;;;2.60;1.00;;;6.80;89.20;;;;;;5036616;28;20447;-75
2021/12/01 05:59:27;;;;;;;1.10;1.03;;;6.80;88.90;;;;;;5041281;28;20977;-75
2021/12/01 06:01:53;;;;;;;1.90;1.30;;;6.80;88.90;;;;;;5045312;28;20475;-75
2021/12/01 06:04:18;;;;;;;2.60;1.20;;;6.80;88.70;;;;;;5037403;28;20177;-75
2021/12/01 06:06:44;;;;;;;16.67;6.40;;;6.90;88.40;;;;;;5047370;28;20293;-75
2021/12/01 06:09:10;;;;;;;5.23;1.90;;;6.90;88.40;;;;;;5043781;28;20184;-75
2021/12/01 06:11:35;;;;;;;1.70;1.10;;;6.90;88.60;;;;;;5039878;28;20192;-75
2021/12/01 06:14:01;;;;;;;1.20;1.10;;;6.90;88.60;;;;;;5038506;28;20185;-74
2021/12/01 06:16:27;;;;;;;1.37;0.97;;;6.90;88.60;;;;;;5040108;28;20694;-74
2021/12/01 06:18:53;;;;;;;1.33;1.00;;;7.00;88.40;;;;;;5053052;28;20185;-74
2021/12/01 06:21:19;;;;;;;0.80;0.80;;;7.00;88.40;;;;;;5045157;28;20473;-77
2021/12/01 06:23:44;;;;;;;2.07;1.00;;;7.00;88.40;;;;;;5042491;28;20259;-75
2021/12/01 06:26:10;;;;;;;1.13;0.87;;;7.00;88.10;;;;;;5051478;28;20208;-73
2021/12/01 06:28:37;;;;;;;3.00;1.20;;;7.00;88.40;;;;;;5046043;28;20185;-73
2021/12/01 06:31:03;;;;;;;3.40;0.90;;;7.00;88.40;;;;;;5032532;28;20430;-74
2021/12/01 06:33:29;;;;;;;1.30;0.80;;;7.10;88.10;;;;;;5048274;28;20454;-74
2021/12/01 06:35:55;;;;;;;2.07;0.90;;;7.00;88.30;;;;;;5054286;28;20454;-75
2021/12/01 06:38:21;;;;;;;0.90;0.80;;;7.00;88.30;;;;;;5044888;28;20424;-74
2021/12/01 06:40:48;;;;;;;1.90;1.33;;;7.10;88.10;;;;;;5043529;28;20263;-74
2021/12/01 06:43:14;;;;;;;2.00;0.83;;;7.10;88.10;;;;;;5044202;28;20180;-73
2021/12/01 06:45:40;;;;;;;1.40;0.90;;;7.10;88.30;;;;;;5049661;28;20434;-75
2021/12/01 06:48:06;;;;;;;1.10;1.00;;;7.10;88.00;;;;;;5050975;28;20435;-75
2021/12/01 06:50:33;;;;;;;1.30;0.90;;;7.10;87.80;;;;;;5051053;28;20842;-75
2021/12/01 06:52:59;;;;;;;1.30;1.00;;;7.10;88.10;;;;;;5032844;28;20432;-74
2021/12/01 06:55:25;;;;;;;1.80;0.87;;;7.20;88.00;;;;;;5049821;28;20508;-74
2021/12/01 06:57:51;;;;;;;3.80;1.03;;;7.20;88.00;;;;;;5041188;28;20481;-74
2021/12/01 07:00:18;;;;;;;1.63;0.90;;;7.20;87.70;;;;;;5044817;28;20862;-74
2021/12/01 07:02:45;;;;;;;1.90;1.10;;;7.20;87.60;;;;;;5052657;28;20192;-74
2021/12/01 07:05:12;;;;;;;1.93;1.00;;;7.30;87.30;;;;;;5055744;28;20431;-75
2021/12/01 07:07:38;;;;;;;0.97;0.70;;;7.30;86.90;;;;;;5056360;28;20532;-75
2021/12/01 07:10:06;;;;;;;0.90;0.70;;;7.30;86.20;;;;;;5054944;28;20499;-75
2021/12/01 07:12:32;;;;;;;1.23;0.87;;;7.30;85.90;;;;;;5049656;28;20416;-73
2021/12/01 07:14:58;;;;;;;1.33;0.87;;;7.30;85.50;;;;;;5047061;28;20427;-75
2021/12/01 07:17:23;;;;;;;1.00;0.80;;;7.40;85.20;;;;;;5056486;28;20208;-76
2021/12/01 07:19:49;;;;;;;1.10;0.87;;;7.40;85.00;;;;;;5053240;28;20212;-74
2021/12/01 07:22:16;;;;;;;2.43;1.20;;;7.40;85.00;;;;;;5042220;28;20234;-73
2021/12/01 07:24:43;;;;;;;1.60;1.00;;;7.50;84.40;;;;;;5052688;28;20283;-73
2021/12/01 07:27:09;;;;;;;2.07;1.00;;;7.50;84.10;;;;;;5039448;28;20450;-74
2021/12/01 07:29:35;;;;;;;0.90;0.73;;;7.50;84.10;;;;;;5043277;28;20431;-73
2021/12/01 07:32:02;;;;;;;1.13;0.80;;;7.50;83.80;;;;;;5042802;28;20426;-74
2021/12/01 07:34:27;;;;;;;0.80;0.70;;;7.50;84.00;;;;;;5053589;28;20423;-76
2021/12/01 07:36:53;;;;;;;1.10;0.73;;;7.60;84.30;;;;;;5052585;28;20511;-74
2021/12/01 07:39:19;;;;;;;2.03;0.90;;;7.60;84.10;;;;;;5045302;28;20219;-75
2021/12/01 07:41:46;;;;;;;1.07;0.73;;;7.60;84.10;;;;;;5037813;28;20300;-74
2021/12/01 07:44:12;;;;;;;1.17;0.80;;;7.60;83.80;;;;;;5053361;28;20419;-74
2021/12/01 07:46:38;;;;;;;1.70;0.70;;;7.70;83.40;;;;;;5051894;28;20447;-76
2021/12/01 07:49:05;;;;;;;1.30;0.80;;;7.70;83.80;;;;;;5053676;28;20447;-76
2021/12/01 07:51:32;;;;;;;1.27;0.80;;;7.70;83.70;;;;;;5045822;28;20835;-75
2021/12/01 07:53:58;;;;;;;2.03;1.00;;;7.70;83.40;;;;;;5044610;28;20459;-74
2021/12/01 07:56:23;;;;;;;1.17;1.10;;;7.80;83.60;;;;;;5046838;28;20489;-75
2021/12/01 07:58:49;;;;;;;1.57;1.10;;;7.80;83.60;;;;;;5050054;28;21077;-74
2021/12/01 08:01:15;;;;;;;2.80;1.50;;;7.80;83.40;;;;;;5047276;28;20462;-76
2021/12/01 08:03:41;;;;;;;0.97;0.90;;;7.90;83.10;;;;;;5042116;28;20423;-75
2021/12/01 08:06:07;;;;;;;2.40;1.17;;;7.90;83.10;;;;;;5049805;28;20628;-74
2021/12/01 08:08:32;;;;;;;1.00;0.70;;;7.90;83.30;;;;;;5039427;28;20291;-75
2021/12/01 08:10:58;;;;;;;1.10;0.80;;;7.80;83.30;;;;;;5037667;28;20702;-75
2021/12/01 08:13:24;;;;;;;1.17;0.90;;;7.90;83.60;;;;;;5044756;28;20188;-74
2021/12/01 08:15:50;;;;;;;1.03;0.87;;;7.90;83.30;;;;;;5041383;28;20280;-73
2021/12/01 08:18:17;;;;;;;0.87;0.80;;;8.00;83.30;;;;;;5054135;28;20195;-75
2021/12/01 08:20:43;;;;;;;3.73;1.13;;;8.00;83.40;;;;;;5055288;28;20471;-75
2021/12/01 08:23:09;;;;;;;1.10;0.80;;;8.00;83.40;;;;;;5047123;28;21288;-74
2021/12/01 08:25:35;;;;;;;1.80;0.80;;;8.00;83.40;;;;;;5045136;28;20432;-76
2021/12/01 08:28:02;;;;;;;0.67;0.60;;;8.00;83.60;;;;;;5042055;28;20450;-75
2021/12/01 08:30:29;;;;;;;1.40;0.90;;;8.10;83.60;;;;;;5045959;28;20437;-75
2021/12/01 08:32:55;;;;;;;3.17;0.70;;;8.10;83.60;;;;;;5041205;28;20415;-76
2021/12/01 08:35:21;;;;;;;1.10;0.60;;;8.10;83.60;;;;;;5049582;28;20488;-74
2021/12/01 08:37:47;;;;;;;0.93;0.70;;;8.20;83.30;;;;;;5052607;28;20446;-74
2021/12/01 08:40:15;;;;;;;0.70;0.60;;;8.20;83.30;;;;;;5045855;28;20424;-76
2021/12/01 08:42:42;;;;;;;0.80;0.77;;;8.20;83.30;;;;;;5051532;28;20427;-75
2021/12/01 08:45:09;;;;;;;0.70;0.70;;;8.30;83.00;;;;;;5040771;28;20408;-76
2021/12/01 08:47:34;;;;;;;1.33;0.73;;;8.30;83.10;;;;;;5043676;28;20492;-75
2021/12/01 08:50:00;;;;;;;1.27;0.60;;;8.30;83.30;;;;;;5042433;28;20419;-75
2021/12/01 08:52:26;;;;;;;1.17;0.80;;;8.30;83.40;;;;;;5038014;28;20184;-74
2021/12/01 08:54:52;;;;;;;1.43;0.70;;;8.40;83.40;;;;;;5038021;28;20459;-76
2021/12/01 08:57:18;;;;;;;1.53;0.87;;;8.50;82.80;;;;;;5051865;28;20431;-73
2021/12/01 08:59:48;;;;;;;0.83;0.60;;;8.50;82.80;;;;;;5049633;28;20476;-74
2021/12/01 09:02:13;;;;;;;1.20;0.77;;;8.50;82.80;;;;;;5042543;28;20517;-75
2021/12/01 09:04:39;;;;;;;0.83;0.57;;;8.60;82.80;;;;;;5044049;28;20461;-75
2021/12/01 09:07:05;;;;;;;0.83;0.70;;;8.60;82.50;;;;;;5042342;28;20220;-74
2021/12/01 09:09:31;;;;;;;0.90;0.70;;;8.70;81.80;;;;;;5051209;28;20645;-75
2021/12/01 09:11:57;;;;;;;0.80;0.70;;;8.70;81.90;;;;;;5039040;28;20416;-74
2021/12/01 09:14:23;;;;;;;0.80;0.60;;;8.80;81.70;;;;;;5049508;28;20426;-76
2021/12/01 09:16:51;;;;;;;1.20;0.80;;;8.90;81.40;;;;;;5042776;28;20197;-76
2021/12/01 09:19:17;;;;;;;0.77;0.60;;;9.00;80.90;;;;;;5052355;28;20427;-76
2021/12/01 09:21:43;;;;;;;8.87;0.87;;;9.10;80.30;;;;;;5054132;28;20470;-75
2021/12/01 09:24:09;;;;;;;0.70;0.60;;;9.20;80.00;;;;;;5045938;28;20419;-74
2021/12/01 09:26:35;;;;;;;0.80;0.60;;;9.30;79.70;;;;;;5038886;28;21109;-76
2021/12/01 09:29:02;;;;;;;0.97;0.60;;;9.30;79.50;;;;;;5036423;28;20412;-75
2021/12/01 09:31:28;;;;;;;0.97;0.70;;;9.30;79.50;;;;;;5035483;28;20439;-74
2021/12/01 09:33:54;;;;;;;0.80;0.60;;;9.30;79.30;;;;;;5046249;28;20438;-74
2021/12/01 09:36:20;;;;;;;1.50;0.83;;;9.40;79.20;;;;;;5040758;28;20957;-75
2021/12/01 09:38:45;;;;;;;2.23;1.00;;;9.30;79.00;;;;;;5045379;28;20435;-75
2021/12/01 09:41:12;;;;;;;1.13;0.70;;;9.30;79.50;;;;;;5041094;28;20406;-74
2021/12/01 09:43:39;;;;;;;1.47;1.00;;;9.40;79.50;;;;;;5040480;28;20548;-75
2021/12/01 09:46:08;;;;;;;0.60;0.60;;;9.30;79.50;;;;;;5046422;28;20516;-76
2021/12/01 09:48:35;;;;;;;1.00;0.70;;;9.40;79.50;;;;;;5044149;28;20446;-75
2021/12/01 09:51:01;;;;;;;0.70;0.60;;;9.30;79.60;;;;;;5047267;28;20432;-75
2021/12/01 09:53:27;;;;;;;0.57;0.50;;;9.40;79.60;;;;;;5037718;28;20898;-75
2021/12/01 09:55:53;;;;;;;2.20;0.70;;;9.40;79.60;;;;;;5039036;28;20416;-74
2021/12/01 09:58:23;;;;;;;0.80;0.60;;;9.40;79.70;;;;;;5038798;28;20427;-75
2021/12/01 10:00:56;;;;;;;2.17;0.70;;;9.50;79.70;;;;;;5041394;28;20201;-75
2021/12/01 10:03:22;;;;;;;1.23;0.80;;;9.50;79.90;;;;;;5053081;28;20425;-77
2021/12/01 10:06:00;;;;;;;1.20;0.83;;;9.50;80.00;;;;;;5035344;28;20424;-76
2021/12/01 10:08:35;;;;;;;1.17;0.73;;;9.50;80.00;;;;;;5041327;28;20427;-75
2021/12/01 10:11:13;;;;;;;1.20;0.80;;;9.50;79.60;;;;;;5043104;28;20443;-74
2021/12/01 10:13:42;;;;;;;0.70;0.63;;;9.60;79.70;;;;;;5053093;28;20423;-76
2021/12/01 10:16:11;;;;;;;1.70;0.90;;;9.60;79.70;;;;;;5042373;28;20422;-75
2021/12/01 10:18:41;;;;;;;1.10;0.80;;;9.70;79.60;;;;;;5048824;28;20798;-74
2021/12/01 10:21:20;;;;;;;0.73;0.67;;;9.70;79.00;;;;;;5046640;28;20541;-74
2021/12/01 10:23:53;;;;;;;2.33;0.90;;;9.70;79.00;;;;;;5045400;28;20440;-74
2021/12/01 10:26:25;;;;;;;1.03;0.97;;;9.70;79.20;;;;;;5051146;28;20474;-75
2021/12/01 10:28:56;;;;;;;1.13;0.80;;;9.80;78.70;;;;;;5037924;28;20458;-74
2021/12/01 10:31:38;;;;;;;0.70;0.60;;;9.80;78.90;;;;;;5044728;28;20454;-74
2021/12/01 10:34:23;;;;;;;1.23;0.60;;;9.90;78.40;;;;;;5049628;28;20441;-75
2021/12/01 10:37:05;;;;;;;1.40;0.80;;;9.90;78.40;;;;;;5049875;28;20458;-75
2021/12/01 10:39:31;;;;;;;0.90;0.70;;;10.00;78.10;;;;;;5043142;28;20458;-75
2021/12/01 10:42:03;;;;;;;2.77;0.90;;;10.00;77.80;;;;;;5047008;28;20459;-75
2021/12/01 10:44:29;;;;;;;0.80;0.60;;;10.00;77.80;;;;;;5041584;28;20173;-75
2021/12/01 10:46:55;;;;;;;0.70;0.53;;;10.10;78.00;;;;;;5040155;28;20450;-75
2021/12/01 10:49:42;;;;;;;1.10;0.60;;;10.10;77.70;;;;;;5047483;28;20173;-75
2021/12/01 10:52:27;;;;;;;1.70;0.80;;;10.10;77.70;;;;;;5036130;28;20416;-73
2021/12/01 10:55:08;;;;;;;0.70;0.70;;;10.10;78.00;;;;;;5048971;28;20922;-75
2021/12/01 10:57:50;;;;;;;0.80;0.70;;;10.10;78.10;;;;;;5049467;28;20442;-75
2021/12/01 11:00:24;;;;;;;0.70;0.60;;;10.20;78.00;;;;;;5042951;28;20416;-75
2021/12/01 11:02:51;;;;;;;0.60;0.50;;;10.30;78.00;;;;;;5045836;28;20750;-74
2021/12/01 11:05:29;;;;;;;1.80;0.70;;;10.30;77.70;;;;;;5048553;28;20414;-75
2021/12/01 11:07:54;;;;;;;4.33;0.70;;;10.30;77.80;;;;;;5055293;28;20529;-74
2021/12/01 11:10:23;;;;;;;1.13;0.70;;;10.30;78.10;;;;;;5039373;28;20416;-75
2021/12/01 11:12:58;;;;;;;1.27;0.70;;;10.30;78.30;;;;;;5042253;28;20205;-75
2021/12/01 11:15:32;;;;;;;1.30;0.60;;;10.30;79.00;;;;;;5037234;28;20430;-74
2021/12/01 11:18:00;;;;;;;0.80;0.70;;;10.30;79.60;;;;;;5048859;28;20431;-75
2021/12/01 11:20:34;;;;;;;0.90;0.80;;;10.30;80.90;;;;;;5052481;28;20560;-74
2021/12/01 11:23:16;;;;;;;0.70;0.70;;;10.20;81.70;;;;;;5037636;28;20913;-75
2021/12/01 11:25:44;;;;;;;1.07;0.60;;;10.20;82.20;;;;;;5049617;28;20414;-75
2021/12/01 11:28:13;;;;;;;0.90;0.60;;;10.20;82.40;;;;;;5047488;28;21012;-76
2021/12/01 11:30:41;;;;;;;0.70;0.70;;;10.10;83.30;;;;;;5049552;28;20954;-74
2021/12/01 11:33:11;;;;;;;1.60;0.90;;;10.10;83.40;;;;;;5051839;28;20419;-74
2021/12/01 11:35:38;;;;;;;1.27;0.60;;;10.10;83.40;;;;;;5052115;28;20435;-75
2021/12/01 11:38:05;;;;;;;0.97;0.70;;;10.10;82.80;;;;;;5049225;28;20940;-75
2021/12/01 11:40:31;;;;;;;1.03;0.80;;;10.10;82.70;;;;;;5047741;28;20422;-75
2021/12/01 11:42:58;;;;;;;0.80;0.70;;;10.20;83.00;;;;;;5051205;28;20502;-75
2021/12/01 11:45:25;;;;;;;1.00;0.73;;;10.30;82.70;;;;;;5044100;28;20518;-74
2021/12/01 11:47:53;;;;;;;1.00;0.70;;;10.40;82.10;;;;;;5052088;28;20473;-74
2021/12/01 11:50:26;;;;;;;0.83;0.70;;;10.50;81.80;;;;;;5049775;28;20936;-74
2021/12/01 11:53:33;;;;;;;0.80;0.50;;;10.50;81.80;;;;;;5047123;28;20433;-75
2021/12/01 11:56:11;;;;;;;1.07;0.70;;;10.70;81.20;;;;;;4996231;28;20435;-75
2021/12/01 11:58:43;;;;;;;1.33;0.80;;;10.60;81.80;;;;;;5010137;28;20428;-74
2021/12/01 12:01:21;;;;;;;0.67;0.57;;;10.60;81.40;;;;;;5011259;28;20534;-76
2021/12/01 12:03:53;;;;;;;0.83;0.70;;;10.70;81.50;;;;;;5011514;28;20443;-76
2021/12/01 12:06:22;;;;;;;1.23;0.90;;;10.70;81.50;;;;;;5010392;28;20528;-75
2021/12/01 12:09:04;;;;;;;0.90;0.70;;;10.70;81.40;;;;;;5010912;28;20425;-74
2021/12/01 12:11:38;;;;;;;1.10;0.83;;;10.70;81.80;;;;;;5011000;28;20474;-76
2021/12/01 12:14:04;;;;;;;3.93;0.90;;;10.80;82.10;;;;;;4994526;28;20428;-74
2021/12/01 12:16:30;;;;;;;1.20;0.90;;;10.70;82.10;;;;;;5010468;28;20945;-76
2021/12/01 12:18:57;;;;;;;0.77;0.70;;;10.70;81.90;;;;;;4993106;28;20212;-76
2021/12/01 12:21:37;;;;;;;0.93;0.83;;;10.60;82.50;;;;;;4994514;28;20221;-75
2021/12/01 12:24:12;;;;;;;0.90;0.80;;;10.60;83.00;;;;;;5010986;28;20429;-76
2021/12/01 12:26:44;;;;;;;2.10;1.07;;;10.60;83.30;;;;;;5025627;28;20443;-74
2021/12/01 12:29:18;;;;;;;3.27;1.13;;;10.60;83.60;;;;;;5053261;28;20439;-75
2021/12/01 12:31:46;;;;;;;1.67;1.00;;;10.60;82.80;;;;;;5040341;28;20446;-74
2021/12/01 12:34:17;;;;;;;1.87;0.90;;;10.50;82.40;;;;;;5047935;28;21131;-75
2021/12/01 12:36:43;;;;;;;1.73;0.87;;;10.50;81.90;;;;;;5049691;28;20504;-75
2021/12/01 12:39:08;;;;;;;3.43;1.03;;;10.40;83.10;;;;;;5046587;28;20957;-75
2021/12/01 12:42:04;;;;;;;1.63;1.07;;;10.40;83.70;;;;;;5051317;28;20326;-76
2021/12/01 12:44:52;;;;;;;1.70;0.90;;;10.40;83.30;;;;;;5049894;28;20177;-75
2021/12/01 12:47:44;;;;;;;1.87;1.10;;;10.30;83.80;;;;;;5043398;28;20432;-75
2021/12/01 12:50:22;;;;;;;2.30;1.57;;;10.30;84.40;;;;;;5044211;28;20423;-76
2021/12/01 12:53:05;;;;;;;1.33;1.10;;;10.10;85.50;;;;;;5050640;28;20541;-77
2021/12/01 12:55:31;;;;;;;0.90;0.87;;;10.10;85.90;;;;;;5048862;28;20448;-74
2021/12/01 12:58:09;;;;;;;1.87;1.40;;;10.00;86.80;;;;;;5048761;28;20482;-76
2021/12/01 13:00:34;;;;;;;2.77;1.40;;;10.00;87.10;;;;;;5046963;28;20192;-75
2021/12/01 13:03:24;;;;;;;1.07;1.07;;;9.90;88.00;;;;;;5047907;28;20469;-75
2021/12/01 13:05:56;;;;;;;1.97;1.33;;;9.80;88.60;;;;;;5039072;28;20615;-74